Time;durP1;ratioP1;P1;durP2;ratioP2;P2;SDS_P1;SDS_P2;PMS_P1;PMS_P2;Temp;Humidity;BMP_temperature;BMP_pressure;BME280_temperature;BME280_humidity;BME280_pressure;Samples;Min_cycle;Max_cycle;Signal;HPM_P1;HPM_P2
2022/07/24 04:02:00;;;;;;;6.38;3.85;;;12.50;99.90;;;;;;5260769;23;20749;-67
2022/07/24 04:04:27;;;;;;;3.83;3.50;;;12.50;99.90;;;;;;4979823;28;20210;-67
2022/07/24 04:06:54;;;;;;;3.50;3.40;;;12.50;99.90;;;;;;4989618;28;20310;-68
2022/07/24 04:09:20;;;;;;;3.40;3.30;;;12.60;99.90;;;;;;4989972;28;20278;-71
2022/07/24 04:11:47;;;;;;;4.05;3.85;;;12.60;99.90;;;;;;4989958;28;20233;-69
2022/07/24 04:14:14;;;;;;;3.40;3.20;;;12.60;99.90;;;;;;4987417;28;20280;-67
2022/07/24 04:16:41;;;;;;;3.95;3.75;;;12.60;99.90;;;;;;4986503;28;20520;-69
2022/07/24 04:19:09;;;;;;;3.40;3.22;;;12.60;99.90;;;;;;4988126;28;20706;-66
2022/07/24 04:21:36;;;;;;;3.67;3.47;;;12.70;99.90;;;;;;4990800;28;20536;-70
2022/07/24 04:24:03;;;;;;;4.80;3.80;;;12.70;99.90;;;;;;5003621;28;20197;-66
2022/07/24 04:26:29;;;;;;;3.88;3.67;;;12.80;99.90;;;;;;5009649;28;20205;-66
2022/07/24 04:28:56;;;;;;;3.60;3.50;;;12.80;99.90;;;;;;5006773;28;20268;-68
2022/07/24 04:31:23;;;;;;;3.80;3.60;;;12.80;99.90;;;;;;5009426;28;20224;-69
2022/07/24 04:33:49;;;;;;;2.90;2.80;;;12.80;99.90;;;;;;5000163;28;20226;-68
2022/07/24 04:36:17;;;;;;;3.70;3.60;;;12.90;99.90;;;;;;5000776;28;20210;-69
2022/07/24 04:38:44;;;;;;;3.47;3.30;;;13.30;99.90;;;;;;4994129;28;20590;-66
2022/07/24 04:41:10;;;;;;;2.87;2.77;;;14.00;99.90;;;;;;4988802;28;20502;-66
2022/07/24 04:43:37;;;;;;;2.50;2.50;;;14.60;99.90;;;;;;4988145;28;20460;-67
2022/07/24 04:46:04;;;;;;;2.30;2.30;;;15.40;99.90;;;;;;4989750;28;20457;-66
2022/07/24 04:48:30;;;;;;;2.90;2.60;;;16.10;99.90;;;;;;4988516;28;20472;-67
2022/07/24 04:50:57;;;;;;;2.37;2.17;;;16.70;99.90;;;;;;4985440;28;20497;-67
2022/07/24 04:53:25;;;;;;;3.00;2.90;;;17.10;99.90;;;;;;4982566;28;20890;-69
2022/07/24 04:55:52;;;;;;;2.53;2.53;;;17.00;99.90;;;;;;4988932;28;20482;-67
2022/07/24 04:58:18;;;;;;;3.07;3.07;;;17.10;99.90;;;;;;4989645;28;20477;-67
2022/07/24 05:00:45;;;;;;;2.90;2.80;;;17.30;99.90;;;;;;4987246;28;20495;-66
2022/07/24 05:03:12;;;;;;;2.77;2.67;;;17.40;99.90;;;;;;4988914;28;20952;-66
2022/07/24 05:05:38;;;;;;;2.63;2.57;;;17.50;99.90;;;;;;4983773;28;20474;-68
2022/07/24 05:08:05;;;;;;;2.43;2.40;;;18.00;99.90;;;;;;4987216;28;20884;-67
2022/07/24 05:10:33;;;;;;;2.77;2.67;;;18.60;99.90;;;;;;4988379;28;20563;-66
2022/07/24 05:13:00;;;;;;;2.20;2.13;;;19.50;99.90;;;;;;4988189;28;21003;-67
2022/07/24 05:15:26;;;;;;;2.60;2.60;;;19.90;99.90;;;;;;4987138;28;20895;-68
2022/07/24 05:17:53;;;;;;;1.90;1.80;;;20.60;99.90;;;;;;4990608;28;20471;-68
2022/07/24 05:20:20;;;;;;;2.03;1.93;;;20.50;99.90;;;;;;4990456;28;20482;-67
2022/07/24 05:22:46;;;;;;;2.20;2.10;;;20.20;99.90;;;;;;4991989;28;20463;-66
2022/07/24 05:25:13;;;;;;;2.53;2.43;;;20.20;99.90;;;;;;4992731;28;20496;-66
2022/07/24 05:27:41;;;;;;;2.20;2.20;;;19.80;99.90;;;;;;4992230;28;20480;-67
2022/07/24 05:30:09;;;;;;;2.40;2.30;;;19.70;99.90;;;;;;4991989;28;20584;-67
2022/07/24 05:32:35;;;;;;;1.77;1.67;;;19.60;99.90;;;;;;4990614;28;20497;-67
2022/07/24 05:35:02;;;;;;;1.87;1.80;;;19.60;99.90;;;;;;4991621;28;20562;-67
2022/07/24 05:37:29;;;;;;;2.60;2.10;;;19.20;99.90;;;;;;4990767;28;20472;-69
2022/07/24 05:39:55;;;;;;;2.17;2.17;;;18.90;99.90;;;;;;4990979;28;20472;-70
2022/07/24 05:42:22;;;;;;;2.30;2.20;;;18.60;99.90;;;;;;4990530;28;20491;-69
2022/07/24 05:44:50;;;;;;;2.87;2.67;;;18.40;99.90;;;;;;4991744;28;21030;-69
2022/07/24 05:47:17;;;;;;;2.63;2.50;;;18.10;99.90;;;;;;4990613;28;20471;-66
2022/07/24 05:49:43;;;;;;;2.43;2.30;;;17.70;99.90;;;;;;4990155;28;20533;-66
2022/07/24 05:52:10;;;;;;;2.60;2.33;;;17.30;99.90;;;;;;4990209;28;20490;-70
2022/07/24 05:54:37;;;;;;;2.47;2.37;;;17.00;99.90;;;;;;4990927;28;20493;-69
2022/07/24 05:57:03;;;;;;;2.33;2.33;;;16.80;99.90;;;;;;4991222;28;20484;-67
2022/07/24 05:59:30;;;;;;;2.47;2.37;;;16.80;99.90;;;;;;4992381;28;20465;-68
2022/07/24 06:01:59;;;;;;;2.07;1.97;;;17.10;99.90;;;;;;4989091;28;20567;-68
2022/07/24 06:04:26;;;;;;;2.10;2.10;;;17.50;99.90;;;;;;4991771;28;20561;-68
2022/07/24 06:06:53;;;;;;;2.83;2.03;;;17.80;99.90;;;;;;4989153;28;20521;-67
2022/07/24 06:09:19;;;;;;;1.83;1.83;;;18.40;99.90;;;;;;4992129;28;20472;-68
2022/07/24 06:11:46;;;;;;;2.27;2.13;;;19.20;99.90;;;;;;4989998;28;21075;-67
2022/07/24 06:14:12;;;;;;;2.20;2.10;;;20.00;99.90;;;;;;4991174;28;20461;-68
2022/07/24 06:16:39;;;;;;;2.00;2.00;;;20.70;99.90;;;;;;4989061;28;20549;-67
2022/07/24 06:19:07;;;;;;;2.00;2.00;;;21.40;99.90;;;;;;4985413;28;20818;-67
2022/07/24 06:21:34;;;;;;;1.93;1.83;;;21.90;99.90;;;;;;4988952;28;20487;-67
2022/07/24 06:24:00;;;;;;;2.00;1.90;;;21.80;99.90;;;;;;4992370;28;20467;-67
2022/07/24 06:26:27;;;;;;;1.80;1.70;;;22.40;99.90;;;;;;4986256;28;20530;-68
2022/07/24 06:28:53;;;;;;;2.00;1.40;;;23.10;99.90;;;;;;4990520;28;20459;-66
2022/07/24 06:31:20;;;;;;;2.23;2.13;;;23.20;99.90;;;;;;4987371;28;20546;-69
2022/07/24 06:33:47;;;;;;;1.87;1.80;;;23.70;99.90;;;;;;4990717;28;20471;-66
2022/07/24 06:36:15;;;;;;;1.40;1.40;;;24.50;99.90;;;;;;4991148;28;20554;-67
2022/07/24 06:38:41;;;;;;;1.50;1.40;;;24.90;99.90;;;;;;4989380;28;20500;-68
2022/07/24 06:41:08;;;;;;;2.00;1.90;;;25.50;99.90;;;;;;4990466;28;20856;-67
2022/07/24 06:43:35;;;;;;;1.43;1.33;;;25.60;99.90;;;;;;4987766;28;20476;-67
2022/07/24 06:46:01;;;;;;;1.30;1.30;;;25.70;99.90;;;;;;4991355;28;20550;-68
2022/07/24 06:48:28;;;;;;;1.20;1.20;;;25.50;99.90;;;;;;4989112;28;20826;-67
2022/07/24 06:50:54;;;;;;;1.80;1.70;;;25.60;99.90;;;;;;4991054;28;20987;-67
2022/07/24 06:53:22;;;;;;;1.27;1.17;;;26.00;99.90;;;;;;4989740;28;20506;-67
2022/07/24 06:55:53;;;;;;;2.00;2.00;;;26.60;99.90;;;;;;4990393;28;20542;-66
2022/07/24 06:58:20;;;;;;;1.53;1.50;;;25.50;99.90;;;;;;4987052;28;21014;-68
2022/07/24 07:00:47;;;;;;;2.43;2.03;;;24.60;99.90;;;;;;4989341;28;20553;-68
2022/07/24 07:03:13;;;;;;;1.40;1.40;;;24.40;99.90;;;;;;4989013;28;20473;-66
2022/07/24 07:05:40;;;;;;;1.33;1.27;;;24.10;99.90;;;;;;4988958;28;20869;-67
2022/07/24 07:08:07;;;;;;;1.43;1.43;;;23.90;99.90;;;;;;4989477;28;20471;-66
2022/07/24 07:10:35;;;;;;;1.70;1.70;;;23.70;99.90;;;;;;4991668;28;20491;-67
2022/07/24 07:13:01;;;;;;;2.40;1.77;;;23.70;99.90;;;;;;4988118;28;20474;-66
2022/07/24 07:15:28;;;;;;;1.83;1.73;;;24.20;99.90;;;;;;4989512;28;20533;-68
2022/07/24 07:17:55;;;;;;;1.40;1.40;;;24.40;99.90;;;;;;4989015;28;20472;-67
2022/07/24 07:20:21;;;;;;;1.30;1.30;;;24.70;99.90;;;;;;4987710;28;20552;-67
2022/07/24 07:22:48;;;;;;;1.57;1.57;;;25.30;99.90;;;;;;4987746;28;20509;-68
2022/07/24 07:25:15;;;;;;;1.40;1.40;;;25.70;99.90;;;;;;4991543;28;20463;-67
2022/07/24 07:27:43;;;;;;;1.50;1.47;;;25.90;99.90;;;;;;4989714;28;20982;-67
2022/07/24 07:30:11;;;;;;;1.20;1.20;;;26.40;99.90;;;;;;4993338;28;20470;-66
2022/07/24 07:32:39;;;;;;;1.27;1.27;;;26.90;99.90;;;;;;4988451;28;20468;-68
2022/07/24 07:35:07;;;;;;;1.30;1.30;;;27.20;99.90;;;;;;4990878;28;20490;-67
2022/07/24 07:37:33;;;;;;;1.60;1.60;;;27.40;99.90;;;;;;4989420;28;20522;-67
2022/07/24 07:40:00;;;;;;;1.60;1.50;;;26.90;99.50;;;;;;4986056;28;20473;-67
2022/07/24 07:42:27;;;;;;;1.60;1.27;;;26.30;99.90;;;;;;4988337;28;20491;-68
2022/07/24 07:44:55;;;;;;;1.30;1.30;;;25.90;99.90;;;;;;4988808;28;20474;-67
2022/07/24 07:47:21;;;;;;;1.50;1.50;;;25.90;99.90;;;;;;4981579;28;20472;-66
2022/07/24 07:49:48;;;;;;;1.37;1.37;;;26.00;99.90;;;;;;4989654;28;20827;-67
2022/07/24 07:52:15;;;;;;;1.50;1.50;;;26.50;99.90;;;;;;4990468;28;20479;-68
2022/07/24 07:54:42;;;;;;;1.40;1.40;;;26.60;99.90;;;;;;4988507;28;20470;-67
2022/07/24 07:57:09;;;;;;;2.10;1.10;;;26.70;99.90;;;;;;4990225;28;20473;-64
2022/07/24 07:59:36;;;;;;;1.50;1.50;;;27.10;99.40;;;;;;4989340;28;20473;-65
2022/07/24 08:02:04;;;;;;;1.47;1.40;;;27.00;99.00;;;;;;4990165;28;20493;-66
2022/07/24 08:04:30;;;;;;;1.50;1.50;;;27.00;99.00;;;;;;4987968;28;20473;-65
2022/07/24 08:06:57;;;;;;;1.93;1.83;;;27.00;98.40;;;;;;4989312;28;20977;-66
2022/07/24 08:09:24;;;;;;;1.37;1.37;;;27.10;98.90;;;;;;4986871;28;20489;-67
2022/07/24 08:11:50;;;;;;;1.70;1.70;;;27.30;98.80;;;;;;4990779;28;20600;-66
2022/07/24 08:14:17;;;;;;;1.53;1.43;;;27.30;98.10;;;;;;4988547;28;20473;-66
2022/07/24 08:16:44;;;;;;;1.43;1.43;;;27.30;98.70;;;;;;4990979;28;20548;-67
2022/07/24 08:19:12;;;;;;;1.70;1.60;;;27.30;98.10;;;;;;4989092;28;20522;-66
2022/07/24 08:21:38;;;;;;;1.80;1.70;;;27.30;98.60;;;;;;4987300;28;20493;-67
2022/07/24 08:24:06;;;;;;;1.93;1.93;;;27.20;97.90;;;;;;4984287;28;21277;-67
2022/07/24 08:26:33;;;;;;;1.43;1.43;;;27.20;98.40;;;;;;4990543;28;20844;-66
2022/07/24 08:29:00;;;;;;;1.43;1.43;;;27.00;97.90;;;;;;4988652;28;20553;-66
2022/07/24 08:31:27;;;;;;;1.63;1.63;;;26.60;98.30;;;;;;4990497;28;20487;-67
2022/07/24 08:33:54;;;;;;;1.77;1.77;;;26.60;98.70;;;;;;4982048;28;20467;-67
2022/07/24 08:36:22;;;;;;;1.70;1.60;;;26.40;99.10;;;;;;4990466;28;20591;-67
2022/07/24 08:38:49;;;;;;;2.20;2.10;;;26.30;99.50;;;;;;4986657;28;20474;-66
2022/07/24 08:41:15;;;;;;;1.87;1.80;;;26.10;99.60;;;;;;4988457;28;20487;-66
2022/07/24 08:43:42;;;;;;;2.10;2.00;;;26.00;99.50;;;;;;4987197;28;20964;-67
2022/07/24 08:46:11;;;;;;;2.20;2.13;;;25.90;99.60;;;;;;4989813;28;20785;-67
2022/07/24 08:48:42;;;;;;;2.00;2.00;;;25.70;99.90;;;;;;4987627;28;20906;-66
2022/07/24 08:51:10;;;;;;;1.90;1.90;;;25.50;99.90;;;;;;4989012;28;20547;-68
2022/07/24 08:53:38;;;;;;;2.33;2.33;;;25.20;99.90;;;;;;4991380;28;20541;-67
2022/07/24 08:56:05;;;;;;;1.80;1.80;;;25.10;99.90;;;;;;4990353;28;20542;-69
2022/07/24 08:58:37;;;;;;;1.87;1.80;;;25.10;99.90;;;;;;4992484;28;20879;-69
2022/07/24 09:01:04;;;;;;;1.90;1.80;;;24.90;99.90;;;;;;4991845;28;21001;-65
2022/07/24 09:03:39;;;;;;;2.20;2.10;;;24.80;99.90;;;;;;4992718;28;20467;-66
2022/07/24 09:06:08;;;;;;;2.00;2.00;;;24.60;99.90;;;;;;4992527;28;20854;-65
2022/07/24 09:08:35;;;;;;;2.47;2.47;;;24.60;99.90;;;;;;4991515;28;20880;-66
2022/07/24 09:11:04;;;;;;;2.63;2.53;;;24.60;99.90;;;;;;4989193;28;20497;-66
2022/07/24 09:14:29;;;;;;;2.17;2.17;;;24.60;99.90;;;;;;4992356;28;20529;-66
2022/07/24 09:16:22;;;;;;;2.53;2.53;;;24.60;99.90;;;;;;4986630;28;20480;-66
2022/07/24 09:18:50;;;;;;;2.47;2.47;;;24.60;99.90;;;;;;4992538;28;20469;-67
2022/07/24 09:21:18;;;;;;;2.70;2.50;;;24.50;99.90;;;;;;4990407;28;20497;-66
2022/07/24 09:23:45;;;;;;;2.40;2.30;;;24.70;99.90;;;;;;4993320;28;20846;-65
2022/07/24 09:26:13;;;;;;;2.27;2.20;;;24.70;99.90;;;;;;4989251;28;20541;-66
2022/07/24 09:28:51;;;;;;;3.03;2.93;;;24.90;99.90;;;;;;4989571;28;20537;-65
2022/07/24 09:31:17;;;;;;;2.50;2.50;;;25.00;99.90;;;;;;4990248;28;20576;-66
2022/07/24 09:33:44;;;;;;;2.97;2.77;;;25.00;99.90;;;;;;4993067;28;20907;-66
2022/07/24 09:36:13;;;;;;;2.67;2.63;;;25.00;99.90;;;;;;4991226;28;20621;-66
2022/07/24 09:38:47;;;;;;;2.50;2.50;;;25.10;99.90;;;;;;4985303;28;20501;-66
2022/07/24 09:41:20;;;;;;;2.53;2.53;;;25.10;99.90;;;;;;4988683;28;21252;-66
2022/07/24 09:43:56;;;;;;;2.60;2.53;;;25.10;99.90;;;;;;4984202;28;20470;-65
2022/07/24 09:46:25;;;;;;;2.97;2.87;;;25.20;99.90;;;;;;4988884;28;20859;-66
2022/07/24 09:48:54;;;;;;;3.40;3.30;;;25.20;99.90;;;;;;4992973;28;20505;-66
2022/07/24 09:51:21;;;;;;;2.90;2.90;;;25.10;99.90;;;;;;4989495;28;20521;-65
2022/07/24 09:53:54;;;;;;;2.60;2.50;;;25.10;99.90;;;;;;4992527;28;20459;-67
2022/07/24 09:56:23;;;;;;;3.20;3.13;;;25.20;99.90;;;;;;4989643;28;20510;-67
2022/07/24 09:58:52;;;;;;;3.27;3.10;;;25.30;99.90;;;;;;4988403;28;20472;-66
2022/07/24 10:01:23;;;;;;;3.40;3.20;;;25.30;99.90;;;;;;4986563;28;20499;-67
2022/07/24 10:03:51;;;;;;;3.53;3.47;;;25.40;99.90;;;;;;4987049;28;20472;-66
2022/07/24 10:06:21;;;;;;;3.10;3.00;;;25.30;99.90;;;;;;4990947;28;20475;-67
2022/07/24 10:08:50;;;;;;;3.77;3.67;;;25.40;99.90;;;;;;4985993;28;20781;-68
2022/07/24 10:11:18;;;;;;;3.90;3.70;;;25.30;99.90;;;;;;4988465;28;20912;-67
2022/07/24 10:13:47;;;;;;;3.30;3.20;;;25.40;99.90;;;;;;4988527;28;20478;-66
2022/07/24 10:16:29;;;;;;;3.67;3.57;;;25.40;99.90;;;;;;4987659;28;20556;-66
2022/07/24 10:18:57;;;;;;;2.97;2.87;;;25.40;99.90;;;;;;4990078;28;20526;-67
2022/07/24 10:21:25;;;;;;;3.50;3.40;;;25.40;99.90;;;;;;4991212;28;20517;-67
2022/07/24 10:24:19;;;;;;;3.40;3.23;;;25.40;99.90;;;;;;4994468;28;20804;-66
2022/07/24 10:26:48;;;;;;;3.67;3.57;;;25.50;99.90;;;;;;4992731;28;20502;-66
2022/07/24 10:29:18;;;;;;;3.23;3.13;;;25.60;99.90;;;;;;4994899;28;20483;-67
2022/07/24 10:31:46;;;;;;;3.67;3.57;;;25.70;99.90;;;;;;4988852;28;20487;-65
2022/07/24 10:34:19;;;;;;;3.40;3.20;;;25.70;99.90;;;;;;4987408;28;20472;-66
2022/07/24 10:36:55;;;;;;;4.00;3.80;;;25.90;99.90;;;;;;4990383;28;20483;-66
2022/07/24 10:39:31;;;;;;;3.97;3.60;;;25.90;99.60;;;;;;4989373;28;20498;-66
2022/07/24 10:42:01;;;;;;;3.87;3.77;;;26.00;98.50;;;;;;4988098;28;20494;-66
2022/07/24 10:44:30;;;;;;;3.83;3.67;;;25.90;98.30;;;;;;4981831;28;20471;-66
2022/07/24 10:47:05;;;;;;;4.27;3.80;;;26.00;98.30;;;;;;4984369;28;20463;-66
2022/07/24 10:49:44;;;;;;;4.67;4.47;;;26.20;99.20;;;;;;4982874;28;20486;-67
2022/07/24 10:52:12;;;;;;;3.33;3.23;;;26.20;98.80;;;;;;4982549;28;20487;-67
2022/07/24 10:54:41;;;;;;;3.83;3.63;;;26.30;98.40;;;;;;4987396;28;20879;-69
2022/07/24 10:57:07;;;;;;;4.07;3.80;;;26.40;98.60;;;;;;4987431;28;20491;-67
2022/07/24 10:59:41;;;;;;;4.03;3.93;;;26.60;98.00;;;;;;5010905;23;20574;-71
2022/07/24 11:02:28;;;;;;;4.17;4.07;;;26.60;98.10;;;;;;4976061;28;20464;-69
2022/07/24 11:05:26;;;;;;;4.43;4.23;;;26.70;97.90;;;;;;4984568;28;20460;-71
2022/07/24 11:08:39;;;;;;;4.10;4.00;;;26.80;97.70;;;;;;4942166;28;20553;-70
2022/07/24 11:11:16;;;;;;;3.63;3.60;;;26.90;97.30;;;;;;4967186;28;20594;-68
2022/07/24 11:13:53;;;;;;;4.97;4.63;;;26.80;97.90;;;;;;4965919;28;20465;-71
2022/07/24 11:16:24;;;;;;;4.90;4.60;;;26.90;97.50;;;;;;4965753;28;20480;-70
2022/07/24 11:19:30;;;;;;;4.33;4.23;;;26.90;97.40;;;;;;4968426;28;20480;-69
2022/07/24 11:22:09;;;;;;;4.27;4.17;;;26.80;97.40;;;;;;4952880;28;20464;-69
2022/07/24 11:24:36;;;;;;;5.10;4.30;;;26.90;96.90;;;;;;4967462;28;20965;-69
2022/07/24 11:27:08;;;;;;;4.37;4.20;;;26.90;96.60;;;;;;4963524;28;20469;-69
2022/07/24 11:29:36;;;;;;;4.93;4.73;;;26.90;96.70;;;;;;4971130;28;20488;-69
2022/07/24 11:32:07;;;;;;;5.40;4.97;;;27.00;96.00;;;;;;4963897;28;20468;-71
2022/07/24 11:34:35;;;;;;;4.73;4.53;;;27.10;96.20;;;;;;4965950;28;20868;-70
2022/07/24 11:37:03;;;;;;;4.73;4.53;;;27.10;96.50;;;;;;4970569;28;20484;-69
2022/07/24 11:39:31;;;;;;;5.00;4.60;;;27.20;96.20;;;;;;4965132;28;20496;-71
2022/07/24 11:42:00;;;;;;;4.73;4.40;;;27.20;96.10;;;;;;4958039;28;20481;-70
2022/07/24 11:44:29;;;;;;;4.50;4.40;;;27.30;96.20;;;;;;4962786;28;20583;-71
2022/07/24 11:46:57;;;;;;;4.27;4.17;;;27.30;95.90;;;;;;4966507;28;20468;-70
2022/07/24 11:49:26;;;;;;;5.27;4.97;;;27.20;96.00;;;;;;4967906;28;20502;-70
2022/07/24 11:51:55;;;;;;;4.70;4.57;;;27.30;96.50;;;;;;4963981;28;20480;-71
2022/07/24 11:54:23;;;;;;;5.90;5.50;;;27.40;96.00;;;;;;4962584;28;20809;-71
2022/07/24 11:56:50;;;;;;;5.60;5.30;;;27.30;95.80;;;;;;4969526;28;20552;-70
2022/07/24 11:59:25;;;;;;;4.90;4.70;;;27.40;96.40;;;;;;4962815;28;20500;-71
2022/07/24 12:01:55;;;;;;;4.43;4.33;;;27.60;96.10;;;;;;4970438;28;20479;-69
2022/07/24 12:04:22;;;;;;;4.93;4.80;;;27.80;96.20;;;;;;4969117;28;20595;-70
2022/07/24 12:06:50;;;;;;;5.53;5.20;;;27.80;95.40;;;;;;4963084;28;20470;-71
2022/07/24 12:09:16;;;;;;;5.10;4.80;;;27.70;95.20;;;;;;4958995;28;20512;-71
2022/07/24 12:11:43;;;;;;;5.47;5.37;;;27.70;95.30;;;;;;4960391;28;20476;-70
2022/07/24 12:14:17;;;;;;;5.30;5.10;;;27.80;95.00;;;;;;4968060;28;20468;-71
2022/07/24 12:16:44;;;;;;;5.43;5.13;;;27.90;95.30;;;;;;4971121;28;20488;-71
2022/07/24 12:19:19;;;;;;;5.87;5.70;;;27.80;95.00;;;;;;4963677;28;20496;-71
2022/07/24 12:21:48;;;;;;;5.23;5.03;;;27.90;95.20;;;;;;4971569;28;20495;-71
2022/07/24 12:24:16;;;;;;;5.23;5.03;;;28.10;95.50;;;;;;4962684;28;20476;-69
2022/07/24 12:26:52;;;;;;;5.93;5.43;;;28.20;94.40;;;;;;4970524;28;20468;-72
2022/07/24 12:29:20;;;;;;;5.87;5.57;;;28.10;94.40;;;;;;4960858;28;20567;-72
2022/07/24 12:31:47;;;;;;;5.80;5.60;;;28.10;94.50;;;;;;4965358;28;20457;-72
2022/07/24 12:34:14;;;;;;;5.30;5.03;;;28.20;94.30;;;;;;4963510;28;21102;-71
2022/07/24 12:36:42;;;;;;;5.77;5.53;;;28.30;94.60;;;;;;4964493;28;20489;-72
2022/07/24 12:39:09;;;;;;;5.17;5.07;;;28.30;94.30;;;;;;4956594;28;20488;-71
2022/07/24 12:41:47;;;;;;;6.67;6.33;;;28.40;94.50;;;;;;4956962;28;20468;-71
2022/07/24 12:44:14;;;;;;;6.43;5.90;;;28.60;94.80;;;;;;4956342;28;20619;-72
2022/07/24 12:46:44;;;;;;;5.60;5.23;;;28.60;94.30;;;;;;4956313;28;20954;-72
2022/07/24 12:49:12;;;;;;;5.53;5.20;;;28.70;93.80;;;;;;4955082;28;21077;-71
2022/07/24 12:51:49;;;;;;;6.07;5.70;;;28.80;94.00;;;;;;4976037;28;20460;-71
2022/07/24 12:54:18;;;;;;;5.83;5.63;;;28.70;93.30;;;;;;4959294;28;20512;-72
2022/07/24 12:56:47;;;;;;;5.90;5.70;;;28.70;93.60;;;;;;4962690;28;20521;-72
2022/07/24 12:59:24;;;;;;;5.70;5.50;;;28.80;93.50;;;;;;4954985;28;20495;-72
2022/07/24 13:01:53;;;;;;;5.63;5.43;;;28.80;93.40;;;;;;4955843;28;20449;-72
2022/07/24 13:04:21;;;;;;;4.97;4.80;;;28.90;93.30;;;;;;4955193;28;20472;-70
2022/07/24 13:06:50;;;;;;;5.73;5.53;;;29.00;93.70;;;;;;4963116;28;20464;-71
2022/07/24 13:09:18;;;;;;;5.53;5.33;;;29.00;92.90;;;;;;4966213;28;20492;-71
2022/07/24 13:11:49;;;;;;;4.87;4.63;;;29.10;92.90;;;;;;4955193;28;20465;-71
2022/07/24 13:14:18;;;;;;;4.93;4.57;;;29.20;92.40;;;;;;4955050;28;20524;-70
2022/07/24 13:16:47;;;;;;;4.57;4.47;;;29.10;92.10;;;;;;4955115;28;20496;-70
2022/07/24 13:19:13;;;;;;;4.80;4.60;;;28.90;91.70;;;;;;4965388;28;20489;-71
2022/07/24 13:21:41;;;;;;;4.80;4.60;;;29.00;92.00;;;;;;4961179;28;20839;-70
2022/07/24 13:24:10;;;;;;;4.23;4.13;;;29.10;91.50;;;;;;4964794;28;20472;-72
2022/07/24 13:26:38;;;;;;;5.23;5.03;;;29.10;91.40;;;;;;4970578;28;20461;-70
2022/07/24 13:29:07;;;;;;;4.67;4.57;;;29.20;91.50;;;;;;4961540;28;20977;-70
2022/07/24 13:31:34;;;;;;;5.03;4.83;;;29.30;91.30;;;;;;4969283;28;20932;-71
2022/07/24 13:34:01;;;;;;;4.90;4.70;;;29.30;90.80;;;;;;4965526;28;20577;-70
2022/07/24 13:36:27;;;;;;;5.27;5.03;;;29.20;90.90;;;;;;4966464;28;20470;-71
2022/07/24 13:38:54;;;;;;;5.00;4.90;;;29.20;90.90;;;;;;4960722;28;20496;-70
2022/07/24 13:41:22;;;;;;;5.37;5.17;;;29.20;91.00;;;;;;4969074;28;20956;-69
2022/07/24 13:43:49;;;;;;;4.97;4.77;;;29.30;91.00;;;;;;4966236;28;20552;-69
2022/07/24 13:46:18;;;;;;;5.43;5.10;;;29.50;91.30;;;;;;4962232;28;20479;-70
2022/07/24 13:48:45;;;;;;;4.27;4.20;;;29.60;90.60;;;;;;4964391;28;20869;-69
2022/07/24 13:51:12;;;;;;;5.20;5.00;;;29.70;90.00;;;;;;4961619;28;20493;-71
2022/07/24 13:53:38;;;;;;;5.00;4.70;;;29.70;89.10;;;;;;4961874;28;20485;-70
2022/07/24 13:56:06;;;;;;;4.87;4.70;;;29.60;89.10;;;;;;4955890;28;20982;-74
2022/07/24 13:58:35;;;;;;;5.00;4.80;;;29.70;88.90;;;;;;4969213;28;20609;-69
2022/07/24 14:01:02;;;;;;;4.70;4.60;;;29.80;89.30;;;;;;4971672;28;20520;-69
2022/07/24 14:03:30;;;;;;;4.33;4.30;;;29.90;89.00;;;;;;4970268;28;20468;-70
2022/07/24 14:05:57;;;;;;;5.30;5.20;;;29.90;88.90;;;;;;4964801;28;20469;-70
2022/07/24 14:08:24;;;;;;;5.30;5.10;;;29.90;88.90;;;;;;4967452;28;20463;-69
2022/07/24 14:10:51;;;;;;;5.30;5.00;;;29.80;88.70;;;;;;4961994;28;20837;-70
2022/07/24 14:13:18;;;;;;;4.80;4.60;;;29.90;89.00;;;;;;4961141;28;20479;-71
2022/07/24 14:15:44;;;;;;;4.63;4.53;;;29.80;87.60;;;;;;4971521;28;20480;-72
2022/07/24 14:18:11;;;;;;;4.70;4.60;;;29.70;87.30;;;;;;4968553;28;20837;-71
2022/07/24 14:20:39;;;;;;;4.83;4.63;;;29.60;88.40;;;;;;4968376;28;20489;-68
2022/07/24 14:23:06;;;;;;;4.90;4.80;;;29.50;89.40;;;;;;4971190;28;20480;-68
2022/07/24 14:25:33;;;;;;;4.97;4.83;;;29.50;89.60;;;;;;4969468;28;20567;-69
2022/07/24 14:28:00;;;;;;;4.80;4.70;;;29.60;89.10;;;;;;4966983;28;20485;-69
2022/07/24 14:30:27;;;;;;;4.80;4.50;;;29.90;88.80;;;;;;4964962;28;20507;-72
2022/07/24 14:32:54;;;;;;;7.17;6.50;;;29.90;88.00;;;;;;4967969;28;20460;-68
2022/07/24 14:35:20;;;;;;;21.50;11.93;;;29.90;88.80;;;;;;4969298;28;20460;-69
2022/07/24 14:37:48;;;;;;;5.80;5.30;;;29.90;90.20;;;;;;4972380;28;20563;-69
2022/07/24 14:40:15;;;;;;;13.87;12.80;;;29.80;88.30;;;;;;4970979;28;20496;-69
2022/07/24 14:42:43;;;;;;;45.00;40.17;;;29.70;88.80;;;;;;4965054;28;20472;-68
2022/07/24 14:45:10;;;;;;;34.70;30.90;;;29.70;87.80;;;;;;4968885;28;20479;-69
2022/07/24 14:47:38;;;;;;;16.13;14.60;;;29.70;87.90;;;;;;4970519;28;20476;-69
2022/07/24 14:50:06;;;;;;;9.63;8.83;;;29.70;88.40;;;;;;4971535;28;20933;-69
2022/07/24 14:52:33;;;;;;;5.63;5.33;;;29.70;87.80;;;;;;4968899;28;20508;-73
2022/07/24 14:55:01;;;;;;;4.73;4.53;;;29.90;86.30;;;;;;4970427;28;20547;-70
2022/07/24 14:57:28;;;;;;;9.37;8.70;;;30.00;85.30;;;;;;4970310;28;20483;-72
2022/07/24 14:59:54;;;;;;;7.63;6.93;;;30.00;87.20;;;;;;4966933;28;20511;-69
2022/07/24 15:02:21;;;;;;;7.53;7.00;;;30.10;86.90;;;;;;4965873;28;20875;-70
2022/07/24 15:04:48;;;;;;;5.43;5.23;;;30.10;85.70;;;;;;4970818;28;20504;-70
2022/07/24 15:07:14;;;;;;;6.43;6.13;;;30.20;84.00;;;;;;4969274;28;20461;-68
2022/07/24 15:09:41;;;;;;;6.97;6.57;;;30.30;84.00;;;;;;4969363;28;21031;-69
2022/07/24 15:12:09;;;;;;;5.07;4.87;;;30.40;85.10;;;;;;4970414;28;20514;-71
2022/07/24 15:14:36;;;;;;;6.70;6.30;;;30.40;83.60;;;;;;4960078;28;20800;-69
2022/07/24 15:17:03;;;;;;;5.53;5.43;;;30.50;84.50;;;;;;4961579;28;20473;-68
2022/07/24 15:19:30;;;;;;;5.90;5.60;;;30.60;82.50;;;;;;4963250;28;20572;-71
2022/07/24 15:21:57;;;;;;;5.50;5.20;;;30.50;82.70;;;;;;4962533;28;20487;-69
2022/07/24 15:24:23;;;;;;;6.73;6.40;;;30.50;82.80;;;;;;4966962;28;20479;-69
2022/07/24 15:26:50;;;;;;;6.60;6.30;;;30.50;83.60;;;;;;4972543;28;20472;-71
2022/07/24 15:29:18;;;;;;;6.40;6.20;;;30.50;83.40;;;;;;4970529;28;21000;-69
2022/07/24 15:31:47;;;;;;;6.60;6.10;;;30.50;82.40;;;;;;4971185;28;20476;-69
2022/07/24 15:34:14;;;;;;;5.60;5.30;;;30.60;83.90;;;;;;4967965;28;20507;-70
2022/07/24 15:36:41;;;;;;;5.87;5.47;;;30.60;83.50;;;;;;4968130;28;20576;-70
2022/07/24 15:39:10;;;;;;;4.90;4.73;;;30.70;82.90;;;;;;4962758;28;20928;-69
2022/07/24 15:41:38;;;;;;;4.97;4.77;;;30.70;81.80;;;;;;4962319;28;20466;-70
2022/07/24 15:44:05;;;;;;;4.90;4.70;;;30.70;81.10;;;;;;4960958;28;20485;-71
2022/07/24 15:46:33;;;;;;;4.93;4.73;;;30.60;81.70;;;;;;4966742;28;20468;-70
2022/07/24 15:49:00;;;;;;;5.43;5.33;;;30.60;81.80;;;;;;4965130;28;20472;-70
2022/07/24 15:51:26;;;;;;;5.67;5.47;;;30.60;82.00;;;;;;4965776;28;20472;-69
2022/07/24 15:53:53;;;;;;;6.87;6.57;;;30.60;81.70;;;;;;4964736;28;20473;-70
2022/07/24 15:56:20;;;;;;;5.50;5.30;;;30.60;82.80;;;;;;4964825;28;20634;-70
2022/07/24 15:58:47;;;;;;;5.63;5.43;;;30.70;81.20;;;;;;4963808;28;20479;-70
2022/07/24 16:01:13;;;;;;;5.60;5.30;;;30.70;81.50;;;;;;4964687;28;20938;-71
2022/07/24 16:03:41;;;;;;;5.30;5.10;;;30.70;81.00;;;;;;4958650;28;20479;-70
2022/07/24 16:06:08;;;;;;;5.33;5.13;;;30.60;80.60;;;;;;4969912;28;20849;-71
2022/07/24 16:08:35;;;;;;;5.90;5.63;;;30.50;81.60;;;;;;4960285;28;20485;-71
2022/07/24 16:11:02;;;;;;;5.77;5.50;;;30.40;82.10;;;;;;4966878;28;20484;-71
2022/07/24 16:13:28;;;;;;;5.50;5.23;;;30.30;83.00;;;;;;4958514;28;20483;-71
2022/07/24 16:15:55;;;;;;;5.97;5.37;;;30.20;83.20;;;;;;4963684;28;20483;-72
2022/07/24 16:18:22;;;;;;;5.23;5.03;;;30.10;82.80;;;;;;4968815;28;20566;-72
2022/07/24 16:20:50;;;;;;;5.53;5.30;;;30.20;83.50;;;;;;4959294;28;20500;-72
2022/07/24 16:23:17;;;;;;;5.57;5.37;;;30.30;82.40;;;;;;4966832;28;20539;-71
2022/07/24 16:25:44;;;;;;;5.53;5.33;;;30.30;83.50;;;;;;4970623;28;20479;-70
2022/07/24 16:28:11;;;;;;;5.80;5.57;;;30.40;82.20;;;;;;4964824;28;20465;-71
2022/07/24 16:30:38;;;;;;;5.57;5.37;;;30.40;83.00;;;;;;4965389;28;20492;-71
2022/07/24 16:33:04;;;;;;;5.80;5.37;;;30.50;82.50;;;;;;4967079;28;20472;-70
2022/07/24 16:35:31;;;;;;;5.20;5.00;;;30.50;82.50;;;;;;4967020;28;20464;-71
2022/07/24 16:38:00;;;;;;;4.77;4.67;;;30.50;82.50;;;;;;4961439;28;20503;-72
2022/07/24 16:40:26;;;;;;;5.40;5.20;;;30.40;82.50;;;;;;4966727;28;20551;-70
2022/07/24 16:42:53;;;;;;;4.80;4.70;;;30.40;82.50;;;;;;4961088;28;20477;-70
2022/07/24 16:45:20;;;;;;;5.37;5.17;;;30.30;82.90;;;;;;4960111;28;20544;-70
2022/07/24 16:47:47;;;;;;;5.13;4.93;;;30.20;82.80;;;;;;4963797;28;20473;-71
2022/07/24 16:50:13;;;;;;;5.27;5.07;;;30.20;83.50;;;;;;4967701;28;20492;-70
2022/07/24 16:52:40;;;;;;;6.47;5.97;;;30.20;82.80;;;;;;4967408;28;20472;-70